Strona główna
METAR-TAF:

METAR-TAF

Lotnisko :

Port lotniczy Miri

Miri, Malezja

Szerokość geograficzna: 04-20N, Długość geograficzna: 113-59E, wysokość: 17 m

Aktualna obserwacja pogody

Raport powstał 1 godzina i 12 minut temu, godzina 03:00 UTC
Wiatr 5 kt od północny zachód, zmienny między zachodnio-południowy zachód i północ
Temperatura 30°C
Wilgotność 84%
Ciśnienie 1010 hPa
Widzialność 10 km lub więcej
Rozproszone chmury na wysokości 1600 ft
Rozproszone chmury na wysokości 15000 ft
Przerywane chmury na wysokości 30000 ft

METAR: WBGR 110300Z 31005KT 250V010 9999 SCT016 SCT150 BKN300 30/27 Q1010

czas: 12:12 (04:12 UTC)

Prognoza

Raport powstał 5 godziny i 12 minut temu, godzina 23:00 UTC
Prognoza ważna od 11 godzina 00 UTC do 12 godzina 00 UTC
Wiatr 2 kt z kierunków zmiennych
Widzialność 10 km lub więcej
Rozproszone chmury na wysokości 1600 ft

TAF: WBGR 102300Z 1100/1200 VRB02KT 9999 SCT016

Obserwacja i prognoza pogody dla ponad 4000 lotnisk (raport METAR i TAF).

Dostępne stacje oznaczono żółtymi i czerwonymi punktami na mapie.

Najedź kursorem aby zobaczyć nazwę stacji.

Kliknij aby zobaczyć obserwacje i prognozy pogody.

Aby zmienić mapę: kliknij na zielony przycisk z czarnym krzyżykiem, aby powiększyć; na zielony przycisk z myślnikiem, aby pomniejszyć; na zielone strzałki, aby przejść do map sąsiednich.


METAR-TAF: